createdAt,value
2019-04-25T02:31:00.592Z,11.45
2019-04-25T02:33:29.019Z,10.28
2019-04-25T02:36:00.995Z,10.53
2019-04-25T02:38:29.548Z,11.53
2019-04-25T02:41:01.976Z,9.70
2019-04-25T02:43:30.522Z,10.45
2019-04-25T02:46:25.026Z,9.65
2019-04-25T02:49:32.975Z,10.65
2019-04-25T02:52:08.503Z,10.60
2019-04-25T02:54:35.784Z,10.00
2019-04-25T02:57:08.068Z,10.50
2019-04-25T02:59:37.000Z,10.40
2019-04-25T03:02:08.973Z,10.88
2019-04-25T03:04:38.110Z,9.53
2019-04-25T03:07:11.089Z,9.40
2019-04-25T03:09:38.985Z,10.50
2019-04-25T03:12:09.440Z,11.35
2019-04-25T03:14:39.002Z,9.28
2019-04-25T03:17:09.927Z,9.73
2019-04-25T03:20:16.102Z,9.65
2019-04-25T03:22:45.522Z,8.68
2019-04-25T03:25:17.548Z,9.08
2019-04-25T03:27:46.043Z,9.80
2019-04-25T03:30:17.849Z,9.55
2019-04-25T03:32:47.095Z,9.90
2019-04-25T03:35:16.507Z,9.35
2019-04-25T03:37:45.924Z,9.03
2019-04-25T03:40:15.335Z,8.08
2019-04-25T03:42:44.865Z,8.75
2019-04-25T03:45:14.908Z,8.73
2019-04-25T03:47:44.501Z,8.18
2019-04-25T03:50:14.075Z,8.75
2019-04-25T03:52:43.728Z,7.70
2019-04-25T03:55:14.384Z,7.80
2019-04-25T03:57:44.390Z,8.03
2019-04-25T04:00:14.687Z,8.00
2019-04-25T04:02:44.457Z,7.95
2019-04-25T04:05:14.999Z,7.47
2019-04-25T04:07:44.483Z,8.08
2019-04-25T04:10:15.408Z,7.70
2019-04-25T04:12:44.921Z,7.78
2019-04-25T04:15:15.899Z,7.50
2019-04-25T04:17:50.280Z,7.47
2019-04-25T04:20:35.919Z,6.65
2019-04-25T04:23:14.381Z,6.80
2019-04-25T04:25:44.021Z,7.20
2019-04-25T04:28:14.121Z,6.50
2019-04-25T04:30:45.413Z,6.00
2019-04-25T04:33:25.809Z,7.90
2019-04-25T04:35:46.048Z,6.50
2019-04-25T04:38:16.375Z,6.47
2019-04-25T04:40:46.019Z,5.30
2019-04-25T04:43:16.498Z,4.72
2019-04-25T04:45:46.058Z,4.30
2019-04-25T04:48:15.632Z,4.67
2019-04-25T04:50:45.396Z,5.45
2019-04-25T04:53:16.026Z,4.72
2019-04-25T04:55:45.820Z,4.67
2019-04-25T04:58:16.380Z,4.05
2019-04-25T05:00:46.550Z,4.00
2019-04-25T05:03:41.005Z,3.55
2019-04-25T05:06:35.185Z,3.42
2019-04-25T05:09:12.003Z,4.08
2019-04-25T05:11:44.102Z,3.52
2019-04-25T05:14:14.893Z,4.17
2019-04-25T05:16:44.462Z,3.25
2019-04-25T05:19:15.457Z,3.72
2019-04-25T05:21:45.616Z,3.12
2019-04-25T05:24:16.107Z,2.65
2019-04-25T05:26:45.897Z,2.55
2019-04-25T05:29:19.737Z,3.83
2019-04-25T05:31:49.117Z,2.50
2019-04-25T05:34:19.555Z,2.50
2019-04-25T05:36:49.208Z,2.05
2019-04-25T05:39:19.433Z,2.12
2019-04-25T05:42:10.853Z,2.25
2019-04-25T05:44:40.258Z,2.10
2019-04-25T05:47:09.700Z,3.00
2019-04-25T05:49:39.435Z,2.05
2019-04-25T05:52:08.917Z,1.90
2019-04-25T05:54:38.333Z,2.10
2019-04-25T05:57:07.766Z,1.25
2019-04-25T05:59:37.348Z,2.05
2019-04-25T06:02:06.861Z,1.83
2019-04-25T06:04:36.270Z,1.00
2019-04-25T06:07:05.793Z,1.12
2019-04-25T06:09:54.553Z,1.17
2019-04-25T06:12:44.675Z,0.70
2019-04-25T06:15:14.665Z,1.40
2019-04-25T06:18:10.143Z,1.00
2019-04-25T06:20:39.561Z,1.00
2019-04-25T06:23:15.161Z,0.97
2019-04-25T06:25:44.585Z,1.00
2019-04-25T06:28:16.225Z,1.00
2019-04-25T06:30:45.634Z,1.10
2019-04-25T06:33:15.035Z,1.10
2019-04-25T06:35:44.481Z,1.20
2019-04-25T06:38:13.941Z,1.27
2019-04-25T06:40:43.826Z,1.03
2019-04-25T06:43:13.568Z,1.17
2019-04-25T06:46:08.045Z,1.17
2019-04-25T06:48:47.994Z,1.07
2019-04-25T06:51:17.498Z,1.10
2019-04-25T06:53:46.895Z,1.07
2019-04-25T06:56:16.309Z,1.30
2019-04-25T06:58:45.752Z,1.45
2019-04-25T07:01:15.210Z,0.90
2019-04-25T07:03:44.616Z,1.00
2019-04-25T07:06:14.743Z,0.90
2019-04-25T07:08:44.873Z,0.90
2019-04-25T07:11:14.470Z,0.90
2019-04-25T07:13:43.989Z,0.90
2019-04-25T07:16:13.558Z,0.80
2019-04-25T07:18:43.629Z,0.70
2019-04-25T07:21:14.200Z,1.10
2019-04-25T07:23:46.189Z,1.07
2019-04-25T07:26:25.008Z,0.90
2019-04-25T07:29:14.153Z,1.07
2019-04-25T07:32:02.174Z,1.00
2019-04-25T07:34:32.106Z,0.80
2019-04-25T07:37:01.524Z,1.60
2019-04-25T07:39:31.918Z,1.03
2019-04-25T07:42:01.985Z,0.87
2019-04-25T07:44:45.586Z,0.80
2019-04-25T07:47:03.871Z,1.10
2019-04-25T07:49:34.717Z,1.17
2019-04-25T07:52:04.425Z,0.90
2019-04-25T07:54:34.424Z,1.10
2019-04-25T07:57:05.488Z,0.80
2019-04-25T07:59:53.988Z,1.03
2019-04-25T08:02:23.445Z,0.80
2019-04-25T08:04:54.137Z,1.00
2019-04-25T08:07:24.133Z,1.00
2019-04-25T08:09:54.185Z,1.10
2019-04-25T08:12:25.219Z,0.90
2019-04-25T08:15:00.557Z,1.10
2019-04-25T08:17:48.245Z,0.90
2019-04-25T08:20:18.192Z,1.03
2019-04-25T08:22:56.253Z,1.27
2019-04-25T08:25:18.977Z,1.40
2019-04-25T08:27:48.791Z,1.10
2019-04-25T08:30:18.427Z,1.13
2019-04-25T08:32:47.862Z,1.10
2019-04-25T08:35:17.269Z,1.00
2019-04-25T08:37:47.017Z,1.30
2019-04-25T08:40:18.590Z,1.10
2019-04-25T08:42:47.983Z,1.13
2019-04-25T08:45:18.013Z,1.30
2019-04-25T08:47:47.412Z,1.10
2019-04-25T08:50:28.919Z,1.60
2019-04-25T08:52:54.382Z,1.23
2019-04-25T08:55:55.123Z,1.17
2019-04-25T08:58:35.290Z,1.00
2019-04-25T09:01:40.615Z,1.00
2019-04-25T09:04:27.842Z,0.90
2019-04-25T09:06:57.254Z,1.10
2019-04-25T09:09:26.721Z,1.07
2019-04-25T09:11:56.143Z,0.73
2019-04-25T09:14:25.609Z,0.83
2019-04-25T09:16:55.044Z,0.93
2019-04-25T09:19:24.481Z,0.80
2019-04-25T09:21:53.887Z,0.90
2019-04-25T09:24:24.616Z,0.90
2019-04-25T09:26:54.615Z,0.93
2019-04-25T09:29:24.027Z,0.90
2019-04-25T09:31:53.836Z,0.90
2019-04-25T09:34:23.879Z,0.80
2019-04-25T09:36:53.708Z,0.70
2019-04-25T09:39:33.805Z,0.70
2019-04-25T09:42:04.405Z,0.80
2019-04-25T09:44:44.212Z,0.67
2019-04-25T09:47:14.581Z,0.70
2019-04-25T09:49:46.266Z,0.90
2019-04-25T09:52:18.810Z,0.70
2019-04-25T09:55:04.724Z,0.60
2019-04-25T09:57:55.101Z,0.90
2019-04-25T10:00:33.496Z,0.70
2019-04-25T10:03:04.507Z,0.60
2019-04-25T10:05:34.048Z,0.70
2019-04-25T10:08:03.493Z,1.23
2019-04-25T10:10:33.169Z,0.80
2019-04-25T10:13:04.899Z,0.80
2019-04-25T10:16:06.172Z,0.63
2019-04-25T10:18:37.057Z,0.63
2019-04-25T10:21:10.322Z,0.77
2019-04-25T10:23:42.091Z,0.70
2019-04-25T10:26:13.621Z,1.27
2019-04-25T10:28:44.029Z,0.70
2019-04-25T10:31:14.454Z,0.80
2019-04-25T10:33:45.849Z,0.60
2019-04-25T10:36:15.237Z,0.70
2019-04-25T10:39:00.155Z,0.87
2019-04-25T10:41:15.729Z,0.60
2019-04-25T10:43:46.055Z,0.70
2019-04-25T10:46:15.905Z,0.70
2019-04-25T10:48:46.033Z,0.67
2019-04-25T10:51:15.553Z,0.67
2019-04-25T10:53:45.977Z,0.70
2019-04-25T10:56:16.074Z,0.70
2019-04-25T10:58:46.716Z,0.70
2019-04-25T11:01:16.305Z,0.80
2019-04-25T11:04:06.292Z,0.60
2019-04-25T11:06:35.784Z,0.80
2019-04-25T11:09:08.818Z,0.73
2019-04-25T11:11:38.389Z,0.70
2019-04-25T11:14:07.795Z,0.53
2019-04-25T11:16:37.685Z,0.70
2019-04-25T11:19:07.334Z,0.80
2019-04-25T11:21:36.837Z,0.90
2019-04-25T11:24:06.475Z,0.70
2019-04-25T11:26:35.937Z,0.73
2019-04-25T11:29:05.505Z,0.70
2019-04-25T11:31:46.989Z,0.70
2019-04-25T11:34:17.591Z,0.60
2019-04-25T11:36:48.424Z,0.70
2019-04-25T11:39:44.731Z,0.60
2019-04-25T11:42:15.333Z,0.60
2019-04-25T11:44:45.429Z,0.60
2019-04-25T11:47:15.588Z,0.70
2019-04-25T11:49:46.487Z,0.60
2019-04-25T11:52:26.985Z,0.50
2019-04-25T11:54:48.138Z,0.60
2019-04-25T11:57:17.781Z,0.60
2019-04-25T11:59:49.196Z,0.70
2019-04-25T12:02:19.065Z,0.67
2019-04-25T12:04:49.042Z,0.70
2019-04-25T12:07:18.584Z,0.60
2019-04-25T12:09:48.189Z,0.87
2019-04-25T12:12:17.608Z,0.80
2019-04-25T12:14:47.607Z,0.80
2019-04-25T12:17:17.084Z,0.73
2019-04-25T12:19:47.030Z,0.70
2019-04-25T12:22:16.601Z,0.60
2019-04-25T12:24:46.714Z,0.70
2019-04-25T12:27:16.283Z,0.80
2019-04-25T12:29:46.000Z,0.80
2019-04-25T12:32:15.650Z,0.60
2019-04-25T12:34:45.791Z,0.67
2019-04-25T12:37:15.388Z,0.70
2019-04-25T12:39:44.794Z,0.70
2019-04-25T12:42:14.575Z,0.50
2019-04-25T12:45:04.059Z,0.70
2019-04-25T12:47:34.480Z,0.60
2019-04-25T12:50:04.153Z,0.70
2019-04-25T12:52:33.562Z,0.50
2019-04-25T12:55:04.058Z,0.60
2019-04-25T12:57:33.539Z,0.60
2019-04-25T13:00:04.160Z,0.70
2019-04-25T13:02:34.561Z,0.60
2019-04-25T13:05:05.724Z,0.77
2019-04-25T13:07:35.992Z,0.60
2019-04-25T13:10:06.049Z,0.63
2019-04-25T13:12:35.830Z,0.73
2019-04-25T13:15:25.788Z,0.60
2019-04-25T13:17:57.195Z,0.60
2019-04-25T13:20:45.733Z,0.60
2019-04-25T13:23:15.349Z,0.60
2019-04-25T13:25:45.078Z,0.60
2019-04-25T13:28:35.937Z,0.80
2019-04-25T13:31:16.990Z,0.60
2019-04-25T13:34:07.598Z,0.80
2019-04-25T13:36:37.531Z,0.63
2019-04-25T13:39:15.070Z,0.93
2019-04-25T13:41:44.787Z,0.80
2019-04-25T13:44:14.746Z,0.70
2019-04-25T13:46:44.216Z,0.80
2019-04-25T13:49:15.713Z,0.97
2019-04-25T13:51:45.341Z,0.70
2019-04-25T13:54:14.937Z,0.70
2019-04-25T13:56:44.292Z,0.90
2019-04-25T13:59:13.934Z,0.60
2019-04-25T14:01:44.216Z,1.10
2019-04-25T14:04:14.250Z,0.70
2019-04-25T14:06:43.781Z,0.60
2019-04-25T14:09:16.944Z,0.80
2019-04-25T14:11:46.426Z,0.90
2019-04-25T14:14:15.834Z,0.80
2019-04-25T14:17:06.853Z,0.87
2019-04-25T14:19:44.359Z,0.77
2019-04-25T14:22:14.318Z,1.00
2019-04-25T14:24:44.104Z,0.90
2019-04-25T14:27:14.217Z,0.90
2019-04-25T14:29:45.308Z,0.83
2019-04-25T14:32:15.729Z,1.00
2019-04-25T14:34:45.219Z,0.70
2019-04-25T14:37:15.046Z,1.07
2019-04-25T14:39:44.860Z,1.00
2019-04-25T14:42:14.474Z,0.90
2019-04-25T14:44:43.894Z,1.00
2019-04-25T14:47:13.354Z,0.80
2019-04-25T14:49:42.772Z,0.80
2019-04-25T14:52:12.346Z,0.80
2019-04-25T14:54:51.203Z,1.03
2019-04-25T14:57:28.379Z,0.90
2019-04-25T14:59:58.108Z,0.70
2019-04-25T15:02:29.885Z,0.90
2019-04-25T15:04:59.453Z,0.80
2019-04-25T15:07:28.913Z,0.80
2019-04-25T15:09:58.431Z,0.70
2019-04-25T15:12:27.911Z,0.73
2019-04-25T15:14:57.344Z,0.93
2019-04-25T15:17:26.918Z,0.80
2019-04-25T15:19:56.707Z,0.80
2019-04-25T15:22:26.109Z,0.67
2019-04-25T15:24:55.537Z,0.70
2019-04-25T15:27:25.163Z,0.70
2019-04-25T15:29:54.688Z,0.90
2019-04-25T15:32:27.518Z,0.80
2019-04-25T15:34:58.453Z,0.70
2019-04-25T15:37:49.710Z,0.60
2019-04-25T15:40:28.935Z,0.70
2019-04-25T15:43:20.317Z,0.70
2019-04-25T15:46:04.058Z,0.70
2019-04-25T15:48:33.470Z,0.80
2019-04-25T15:51:02.897Z,0.60
2019-04-25T15:53:32.387Z,0.80
2019-04-25T15:56:01.857Z,0.80
2019-04-25T15:58:31.303Z,0.87
2019-04-25T16:01:00.738Z,0.80
2019-04-25T16:03:30.822Z,0.80
2019-04-25T16:06:00.630Z,1.00
2019-04-25T16:08:30.931Z,1.00
2019-04-25T16:11:00.605Z,0.93
2019-04-25T16:13:30.229Z,1.30
2019-04-25T16:15:59.615Z,1.00
2019-04-25T16:18:29.091Z,1.10
2019-04-25T16:20:58.596Z,1.47
2019-04-25T16:23:29.033Z,0.90
2019-04-25T16:25:58.983Z,1.43
2019-04-25T16:28:28.830Z,1.20
2019-04-25T16:30:58.943Z,1.33
2019-04-25T16:33:29.083Z,0.83
2019-04-25T16:35:59.131Z,1.30
2019-04-25T16:38:29.678Z,0.97
2019-04-25T16:40:59.255Z,1.43
2019-04-25T16:43:30.731Z,1.00
2019-04-25T16:46:00.166Z,1.20
2019-04-25T16:48:29.935Z,1.00
2019-04-25T16:50:59.616Z,1.20
2019-04-25T16:53:29.141Z,1.47
2019-04-25T16:55:58.709Z,1.30
2019-04-25T16:58:28.604Z,1.43
2019-04-25T17:01:05.376Z,1.50
2019-04-25T17:03:35.419Z,1.57
2019-04-25T17:06:06.134Z,1.20
2019-04-25T17:08:36.239Z,1.20
2019-04-25T17:11:05.829Z,1.17
2019-04-25T17:13:38.485Z,3.77
2019-04-25T17:16:32.977Z,3.30
2019-04-25T17:19:06.113Z,3.67
2019-04-25T17:21:36.894Z,1.60
2019-04-25T17:24:06.774Z,1.50
2019-04-25T17:26:36.957Z,1.20
2019-04-25T17:29:10.202Z,1.40
2019-04-25T17:31:55.913Z,1.27
2019-04-25T17:34:44.644Z,1.67
2019-04-25T17:37:21.537Z,1.10
2019-04-25T17:40:00.349Z,1.30
2019-04-25T17:42:29.886Z,1.53
2019-04-25T17:44:59.478Z,1.83
2019-04-25T17:47:28.927Z,1.67
2019-04-25T17:49:58.347Z,1.40
2019-04-25T17:52:28.119Z,1.60
2019-04-25T17:54:57.625Z,1.50
2019-04-25T17:57:27.531Z,1.57
2019-04-25T17:59:57.351Z,1.50
2019-04-25T18:02:27.019Z,1.40
2019-04-25T18:04:56.521Z,1.67
2019-04-25T18:07:26.317Z,1.33
2019-04-25T18:09:56.438Z,1.50
2019-04-25T18:12:25.900Z,1.53
2019-04-25T18:14:56.901Z,1.67
2019-04-25T18:17:26.862Z,1.40
2019-04-25T18:20:01.758Z,1.30
2019-04-25T18:22:59.247Z,1.20
2019-04-25T18:25:46.192Z,1.80
2019-04-25T18:28:22.035Z,1.67
2019-04-25T18:30:51.730Z,3.33
2019-04-25T18:33:28.740Z,2.63
2019-04-25T18:36:18.196Z,2.90
2019-04-25T18:39:06.589Z,2.10
2019-04-25T18:41:47.225Z,1.80
2019-04-25T18:44:16.654Z,1.90
2019-04-25T18:46:47.323Z,1.80
2019-04-25T18:49:17.283Z,2.00
2019-04-25T18:51:56.712Z,1.90
2019-04-25T18:54:28.943Z,2.47
2019-04-25T18:57:12.290Z,2.40
2019-04-25T18:59:56.814Z,2.23
2019-04-25T19:02:52.165Z,2.00
2019-04-25T19:05:40.967Z,1.70
2019-04-25T19:08:11.006Z,2.00
2019-04-25T19:10:40.802Z,2.17
2019-04-25T19:13:12.719Z,1.97
2019-04-25T19:15:41.653Z,1.83
2019-04-25T19:18:11.260Z,1.70
2019-04-25T19:20:41.638Z,2.47
2019-04-25T19:23:11.793Z,2.17
2019-04-25T19:25:41.579Z,1.60
2019-04-25T19:28:11.239Z,2.97
2019-04-25T19:30:41.077Z,2.60
2019-04-25T19:33:10.882Z,2.70
2019-04-25T19:35:43.617Z,5.12
2019-04-25T19:38:13.017Z,3.15
2019-04-25T19:40:50.784Z,2.60
2019-04-25T19:43:40.027Z,2.60
2019-04-25T19:46:10.810Z,3.40
2019-04-25T19:48:41.234Z,3.40
2019-04-25T19:51:11.153Z,2.83
2019-04-25T19:53:41.713Z,3.00
2019-04-25T19:56:11.337Z,2.70
2019-04-25T19:58:42.066Z,2.90
2019-04-25T20:01:12.196Z,3.22
2019-04-25T20:03:53.547Z,2.65
2019-04-25T20:06:26.337Z,3.20
2019-04-25T20:09:00.713Z,4.40
2019-04-25T20:11:44.221Z,4.37
2019-04-25T20:14:14.166Z,5.15
2019-04-25T20:16:46.048Z,5.25
2019-04-25T20:19:15.829Z,5.65
2019-04-25T20:21:45.822Z,5.17
2019-04-25T20:24:15.382Z,5.75
2019-04-25T20:26:45.016Z,6.72
2019-04-25T20:29:14.877Z,7.30
2019-04-25T20:31:45.298Z,7.10
2019-04-25T20:34:15.300Z,6.05
2019-04-25T20:36:45.706Z,6.60
2019-04-25T20:39:15.212Z,8.05
2019-04-25T20:41:45.430Z,10.38
2019-04-25T20:44:16.318Z,18.17
2019-04-25T20:46:46.674Z,30.45
2019-04-25T20:49:16.116Z,28.35
2019-04-25T20:51:47.045Z,9.90
2019-04-25T20:54:16.609Z,8.83
2019-04-25T20:56:46.725Z,10.38
2019-04-25T20:59:17.437Z,11.35
